• Join FlightAware (Why Join?)
  • Login
  • US Flag 
09:17AM EDT


 

Airport Tracker/Info


-or-


 

Live Flight TrackerFlight Track Log ✈ N813MK ✈ 18-Apr-2013 ✈ KOKC - KMKC

Flight Track Log - Related Links

Times and Time Zones

All times are in EDT time to prevent confusion due to time zone crossing. See the N813MK flight status page for this flight to view local times or setup timezone preferences in your user account.

Time Position Orientation Groundspeed Altitude Reporting Facility
EDT Latitude Longitude Course Direction KTS MPH feet Rate Location/Type
12:23PM 35.4039 -97.5919 North 151 174 2,200  Level Fort Worth Center
12:24PM 35.4644 -97.5894 North 180 207 5,300 1,800 Climbing Fort Worth Center
12:25PM 35.5208 -97.5894 360° North 223 257 6,300 1,560 Climbing Fort Worth Center
12:27PM 35.6942 -97.5728 North 297 342 10,500 1,800 Climbing Kansas City Center
12:28PM 35.7925 -97.5631 North 342 394 12,100 1,680 Climbing Kansas City Center
12:29PM 35.9044 -97.5503 North 387 445 14,000 1,920 Climbing Kansas City Center
12:30PM 36.0208 -97.5042 18° North 429 494 16,100 1,980 Climbing Kansas City Center
12:31PM 36.1361 -97.4328 27° Northeast 464 534 18,100 1,980 Climbing Kansas City Center
12:32PM 36.2514 -97.3472 31° Northeast 481 554 20,200 1,980 Climbing Kansas City Center
12:33PM 36.3725 -97.2586 30° Northeast 497 572 22,300 2,280 Climbing Kansas City Center
12:34PM 36.5211 -97.1492 31° Northeast 513 590 25,000 2,160 Climbing Kansas City Center
12:35PM 36.6378 -97.0656 30° Northeast 525 604 26,800 960 Climbing Kansas City Center
12:36PM 36.7711 -96.9678 30° Northeast 545 627 27,000 60 Climbing Kansas City Center
12:37PM 36.9247 -96.8550 30° Northeast 574 661 27,000  Level Kansas City Center
12:38PM 37.0500 -96.7608 31° Northeast 576 663 27,000  Level Kansas City Center
12:39PM 37.1919 -96.6556 31° Northeast 562 647 27,000  Level Kansas City Center
12:40PM 37.3203 -96.5586 31° Northeast 549 632 27,000  Level Kansas City Center
12:41PM 37.4500 -96.4625 30° Northeast 545 627 27,000  Level Kansas City Center
12:42PM 37.6000 -96.3483 31° Northeast 544 626 27,000 -180 Level Kansas City Center
12:44PM 37.7375 -96.2453 31° Northeast 550 633 26,700 -600 Descending Kansas City Center
12:45PM 37.8703 -96.1464 30° Northeast 555 639 25,800 -1,260 Descending Kansas City Center
12:46PM 38.0019 -96.0458 31° Northeast 551 634 24,200 -1,260 Descending Kansas City Center
12:47PM 38.1406 -95.9383 31° Northeast 525 604 23,200 -1,500 Descending Kansas City Center
12:48PM 38.2586 -95.8492 31° Northeast 517 595 21,100 -2,220 Descending Kansas City Center
12:49PM 38.3725 -95.7606 31° Northeast 505 581 18,800 -2,520 Descending Kansas City Center
12:50PM 38.5042 -95.6561 32° Northeast 500 575 16,000 -2,460 Descending Kansas City Center
12:51PM 38.6183 -95.5683 31° Northeast 500 575 13,800 -1,920 Descending Kansas City Center
12:52PM 38.7353 -95.4767 31° Northeast 441 507 12,100 -840 Descending Kansas City Center
12:53PM 38.8203 -95.4022 34° Northeast 389 448 12,100 -180 Level Kansas City Center
12:54PM 38.8986 -95.2897 48° Northeast 381 438 11,800 -540 Descending Kansas City Center
12:55PM 38.9303 -95.1678 72° East 385 443 11,000 -1,380 Descending Kansas City Center
12:56PM 38.9489 -95.0500 78° East 354 407 9,000 -1,980 Descending Kansas City Center
12:57PM 38.9508 -94.9308 89° East 298 343 7,100 -960 Descending Kansas City Center
12:58PM 38.9414 -94.8497 98° East 237 273 7,000 -660 Descending Kansas City Center
12:59PM 38.9231 -94.7692 106° East 212 244 5,800 -1,380 Descending Kansas City Center
01:00PM 38.9742 -94.7344 28° Northeast 195 224 4,100 -1,200 Descending Kansas City Center
01:01PM 39.0108 -94.6978 38° Northeast 172 198 3,300 -840 Descending Kansas City Center
01:02PM 39.0506 -94.6614 35° Northeast 158 182 2,500 -720 Descending Kansas City Center
01:03PM 39.0786 -94.6231 47° Northeast 161 185 1,900 -720 Descending Kansas City Center
01:04PM 39.1153 -94.5969 29° Northeast 158 182 1,100 -840 Descending Kansas City Center